Terminal Aerodrome Forecast
Issued by NWS

Home | Current Version | Previous Version | Text Only | Print | Product List | Glossary Off
Versions: 1 2 3 4 5 6 7 8 9 10 11 12 13 14 15 16 17

000
FTUS43 KBIS 222300
TAFMOT
TAF
KMOT 222322Z 2300/2324 07007KT P6SM SKC
     FM230600 11006KT P6SM FEW250
     FM231700 12011KT P6SM FEW210
     FM232200 14013KT P6SM VCSH BKN080=

USA.gov is the U.S. government's official web portal to all federal, state and local government web resources and services.